createdAt,value
2023-05-11T00:00:03.681Z,975.41
2023-05-11T00:01:03.166Z,975.47
2023-05-11T00:02:03.203Z,975.44
2023-05-11T00:03:03.984Z,975.41
2023-05-11T00:05:03.694Z,975.41
2023-05-11T00:06:03.231Z,975.44
2023-05-11T00:07:03.808Z,975.39
2023-05-11T00:08:03.811Z,975.28
2023-05-11T00:09:03.393Z,975.31
2023-05-11T00:10:04.133Z,975.39
2023-05-11T00:11:03.188Z,975.53
2023-05-11T00:12:03.733Z,975.47
2023-05-11T00:13:03.503Z,975.53
2023-05-11T00:14:03.199Z,975.39
2023-05-11T00:15:03.190Z,975.56
2023-05-11T00:16:03.840Z,975.36
2023-05-11T00:17:03.416Z,975.42
2023-05-11T00:18:03.488Z,975.25
2023-05-11T00:19:03.281Z,975.39
2023-05-11T00:20:03.022Z,975.36
2023-05-11T00:21:03.039Z,975.33
2023-05-11T00:22:03.035Z,975.28
2023-05-11T00:23:03.547Z,975.39
2023-05-11T00:24:03.502Z,975.42
2023-05-11T00:25:03.054Z,975.33
2023-05-11T00:26:03.125Z,975.28
2023-05-11T00:27:03.677Z,975.33
2023-05-11T00:28:03.729Z,975.36
2023-05-11T00:29:03.232Z,975.26
2023-05-11T00:30:03.327Z,975.28
2023-05-11T00:31:03.385Z,975.39
2023-05-11T00:32:03.584Z,975.26
2023-05-11T00:33:03.737Z,975.26
2023-05-11T00:34:03.573Z,975.29
2023-05-11T00:35:03.004Z,975.17
2023-05-11T00:36:03.641Z,975.31
2023-05-11T00:38:03.788Z,975.29
2023-05-11T00:40:02.995Z,975.17
2023-05-11T00:41:02.959Z,975.17
2023-05-11T00:42:03.579Z,975.23
2023-05-11T00:43:03.092Z,975.23
2023-05-11T00:44:03.058Z,975.23
2023-05-11T00:45:03.784Z,975.23
2023-05-11T00:47:04.041Z,975.20
2023-05-11T00:49:03.755Z,975.03
2023-05-11T00:50:03.486Z,975.20
2023-05-11T00:51:03.235Z,975.17
2023-05-11T00:52:03.841Z,975.09
2023-05-11T00:53:03.778Z,975.17
2023-05-11T00:54:03.267Z,975.29
2023-05-11T00:55:03.309Z,975.26
2023-05-11T00:56:03.283Z,975.23
2023-05-11T00:57:03.936Z,975.03
2023-05-11T00:59:03.122Z,975.12
2023-05-11T01:00:03.792Z,975.23
2023-05-11T01:02:03.236Z,975.03
2023-05-11T01:03:03.070Z,975.15
2023-05-11T01:04:03.670Z,975.09
2023-05-11T01:06:03.764Z,975.18
2023-05-11T01:08:03.447Z,975.23
2023-05-11T01:09:02.982Z,975.03
2023-05-11T01:10:03.578Z,975.12
2023-05-11T01:11:03.382Z,975.18
2023-05-11T01:12:03.033Z,975.18
2023-05-11T01:13:03.586Z,975.20
2023-05-11T01:15:03.148Z,975.23
2023-05-11T01:16:03.785Z,975.15
2023-05-11T01:18:03.474Z,975.03
2023-05-11T01:19:03.192Z,975.09
2023-05-11T01:20:03.799Z,975.12
2023-05-11T01:21:03.562Z,975.18
2023-05-11T01:22:03.191Z,975.03
2023-05-11T01:23:03.119Z,975.09
2023-05-11T01:25:03.578Z,975.15
2023-05-11T01:27:03.257Z,975.09
2023-05-11T01:28:03.708Z,975.12
2023-05-11T01:30:03.937Z,975.09
2023-05-11T01:31:03.455Z,975.18
2023-05-11T01:32:03.910Z,975.10
2023-05-11T01:33:03.816Z,975.18
2023-05-11T01:34:03.630Z,975.15
2023-05-11T01:36:03.769Z,975.01
2023-05-11T01:38:03.874Z,974.98
2023-05-11T01:39:03.864Z,975.10
2023-05-11T01:41:03.336Z,975.18
2023-05-11T01:42:03.889Z,975.18
2023-05-11T01:44:02.934Z,975.10
2023-05-11T01:45:03.526Z,975.24
2023-05-11T01:47:03.622Z,975.10
2023-05-11T01:48:03.384Z,975.16
2023-05-11T01:49:03.121Z,975.13
2023-05-11T01:50:03.206Z,975.24
2023-05-11T01:51:03.239Z,975.10
2023-05-11T01:52:03.750Z,975.16
2023-05-11T01:53:03.856Z,975.13
2023-05-11T01:54:03.292Z,975.21
2023-05-11T01:55:03.892Z,975.16
2023-05-11T01:57:02.980Z,975.10
2023-05-11T01:58:03.519Z,975.16
2023-05-11T02:00:03.712Z,975.13
2023-05-11T02:01:03.839Z,975.27
2023-05-11T02:03:03.180Z,975.16
2023-05-11T02:04:03.300Z,975.16
2023-05-11T02:05:03.865Z,975.13
2023-05-11T02:07:03.534Z,975.19
2023-05-11T02:08:03.160Z,975.04
2023-05-11T02:09:03.758Z,975.13
2023-05-11T02:11:03.421Z,975.19
2023-05-11T02:12:02.968Z,975.24
2023-05-11T02:13:03.079Z,975.16
2023-05-11T02:14:03.594Z,975.24
2023-05-11T02:15:03.635Z,975.16
2023-05-11T02:17:03.393Z,975.10
2023-05-11T02:18:03.022Z,975.19
2023-05-11T02:19:03.731Z,975.13
2023-05-11T02:20:03.483Z,975.19
2023-05-11T02:21:03.387Z,975.27
2023-05-11T02:22:02.962Z,975.10
2023-05-11T02:23:03.581Z,975.13
2023-05-11T02:24:03.589Z,975.19
2023-05-11T02:25:03.189Z,975.13
2023-05-11T02:26:03.725Z,975.04
2023-05-11T02:27:03.477Z,975.24
2023-05-11T02:28:03.406Z,975.22
2023-05-11T02:29:03.439Z,975.27
2023-05-11T02:30:02.922Z,975.19
2023-05-11T02:31:03.678Z,975.16
2023-05-11T02:32:03.786Z,975.04
2023-05-11T02:34:03.034Z,975.13
2023-05-11T02:35:03.738Z,975.13
2023-05-11T02:37:02.987Z,975.10
2023-05-11T02:38:02.938Z,975.30
2023-05-11T02:39:03.098Z,975.13
2023-05-11T02:40:03.743Z,975.22
2023-05-11T02:42:03.022Z,975.13
2023-05-11T02:43:03.712Z,975.10
2023-05-11T02:44:03.591Z,975.02
2023-05-11T02:45:03.323Z,974.91
2023-05-11T02:46:03.376Z,975.16
2023-05-11T02:47:03.012Z,975.19
2023-05-11T02:48:03.228Z,975.10
2023-05-11T02:49:03.833Z,974.99
2023-05-11T02:51:03.286Z,974.99
2023-05-11T02:52:03.769Z,974.96
2023-05-11T02:53:03.494Z,975.10
2023-05-11T02:54:03.112Z,975.10
2023-05-11T02:55:03.705Z,975.05
2023-05-11T02:57:03.201Z,975.02
2023-05-11T02:58:03.037Z,975.19
2023-05-11T02:59:03.036Z,975.02
2023-05-11T03:00:03.777Z,975.05
2023-05-11T03:01:03.686Z,975.05
2023-05-11T03:02:03.442Z,975.16
2023-05-11T03:03:03.251Z,975.02
2023-05-11T03:04:03.752Z,975.10
2023-05-11T03:06:03.390Z,974.91
2023-05-11T03:07:03.038Z,975.05
2023-05-11T03:08:03.639Z,974.96
2023-05-11T03:10:03.250Z,974.91
2023-05-11T03:11:03.111Z,974.86
2023-05-11T03:12:03.680Z,974.91
2023-05-11T03:14:03.152Z,974.94
2023-05-11T03:15:03.192Z,975.02
2023-05-11T03:16:03.795Z,974.94
2023-05-11T03:17:03.577Z,974.99
2023-05-11T03:18:03.178Z,974.96
2023-05-11T03:19:03.917Z,975.05
2023-05-11T03:21:03.226Z,974.89
2023-05-11T03:22:03.603Z,974.94
2023-05-11T03:23:03.332Z,974.86
2023-05-11T03:24:03.735Z,974.91
2023-05-11T03:25:03.885Z,974.94
2023-05-11T03:27:03.585Z,974.94
2023-05-11T03:28:03.247Z,974.86
2023-05-11T03:29:03.651Z,974.89
2023-05-11T03:31:03.875Z,974.89
2023-05-11T03:33:03.206Z,974.89
2023-05-11T03:34:03.247Z,974.86
2023-05-11T03:35:03.744Z,974.89
2023-05-11T03:37:03.840Z,974.86
2023-05-11T03:38:03.313Z,974.83
2023-05-11T03:39:03.607Z,974.89
2023-05-11T03:40:03.090Z,974.86
2023-05-11T03:41:03.719Z,974.89
2023-05-11T03:43:02.983Z,974.83
2023-05-11T03:44:03.529Z,974.80
2023-05-11T03:45:03.284Z,974.83
2023-05-11T03:46:03.420Z,974.86
2023-05-11T03:47:03.340Z,974.77
2023-05-11T03:48:03.912Z,974.86
2023-05-11T03:49:03.921Z,974.92
2023-05-11T03:50:02.982Z,974.86
2023-05-11T03:51:02.973Z,974.75
2023-05-11T03:52:03.526Z,974.86
2023-05-11T03:54:03.916Z,974.89
2023-05-11T03:56:03.134Z,974.83
2023-05-11T03:57:03.637Z,974.77
2023-05-11T03:58:04.654Z,974.89
2023-05-11T03:59:03.777Z,974.83
2023-05-11T04:00:03.840Z,974.83
2023-05-11T04:01:03.545Z,974.77
2023-05-11T04:02:03.075Z,974.83
2023-05-11T04:03:03.853Z,974.86
2023-05-11T04:04:03.835Z,974.72
2023-05-11T04:06:03.703Z,974.83
2023-05-11T04:07:03.892Z,974.66
2023-05-11T04:08:03.503Z,974.83
2023-05-11T04:09:03.485Z,974.83
2023-05-11T04:10:03.112Z,974.74
2023-05-11T04:11:03.732Z,974.89
2023-05-11T04:13:02.949Z,974.80
2023-05-11T04:14:03.530Z,974.66
2023-05-11T04:15:03.697Z,974.77
2023-05-11T04:16:03.337Z,974.57
2023-05-11T04:17:03.343Z,974.83
2023-05-11T04:18:03.450Z,974.66
2023-05-11T04:19:03.236Z,974.92
2023-05-11T04:20:03.169Z,974.89
2023-05-11T04:21:03.768Z,974.72
2023-05-11T04:24:03.749Z,974.80
2023-05-11T04:25:04.047Z,974.86
2023-05-11T04:27:08.734Z,974.92
2023-05-11T04:29:04.144Z,974.80
2023-05-11T04:34:03.200Z,974.80
2023-05-11T04:49:03.624Z,974.80
2023-05-11T04:51:03.200Z,974.77
2023-05-11T04:55:03.631Z,974.66
2023-05-11T04:59:05.705Z,974.63
2023-05-11T05:02:03.767Z,974.72
2023-05-11T05:03:03.464Z,974.69
2023-05-11T05:04:03.579Z,974.77
2023-05-11T05:05:03.742Z,974.77
2023-05-11T05:06:03.308Z,974.96
2023-05-11T05:07:03.792Z,974.63
2023-05-11T05:08:03.688Z,974.72
2023-05-11T05:13:03.402Z,974.71
2023-05-11T05:15:03.498Z,974.63
2023-05-11T05:17:04.234Z,974.74
2023-05-11T05:31:08.534Z,974.89
2023-05-11T05:33:03.160Z,974.95
2023-05-11T05:34:03.141Z,974.74
2023-05-11T05:35:03.110Z,974.94
2023-05-11T05:36:03.103Z,974.83
2023-05-11T05:37:03.703Z,974.92
2023-05-11T05:38:03.496Z,974.83
2023-05-11T05:39:03.619Z,974.80
2023-05-11T05:40:03.642Z,974.80
2023-05-11T05:41:03.744Z,974.89
2023-05-11T05:42:03.548Z,974.91
2023-05-11T05:43:03.319Z,974.96
2023-05-11T05:44:03.962Z,974.74
2023-05-11T05:46:03.206Z,974.99
2023-05-11T05:47:03.954Z,974.88
2023-05-11T05:50:03.882Z,974.99
2023-05-11T05:51:03.921Z,974.99
2023-05-11T05:56:03.732Z,974.94
2023-05-11T05:58:03.724Z,974.82
2023-05-11T05:59:03.220Z,974.94
2023-05-11T06:01:03.149Z,974.98
2023-05-11T06:02:03.735Z,975.04
2023-05-11T06:03:03.493Z,974.95
2023-05-11T06:05:03.921Z,974.91
2023-05-11T06:07:03.777Z,974.85
2023-05-11T06:08:10.830Z,974.95
2023-05-11T06:09:03.709Z,974.93
2023-05-11T06:10:03.995Z,975.01
2023-05-11T06:11:03.880Z,974.98
2023-05-11T06:12:03.531Z,975.01
2023-05-11T06:13:03.479Z,974.93
2023-05-11T06:14:03.186Z,975.01
2023-05-11T06:15:03.967Z,974.98
2023-05-11T06:17:03.921Z,974.98
2023-05-11T06:18:03.814Z,974.93
2023-05-11T06:19:03.402Z,974.87
2023-05-11T06:20:03.717Z,975.03
2023-05-11T06:21:03.813Z,975.03
2023-05-11T06:22:06.623Z,975.03
2023-05-11T06:23:03.130Z,975.18
2023-05-11T06:24:03.773Z,975.15
2023-05-11T06:25:03.839Z,974.90
2023-05-11T06:26:03.832Z,974.97
2023-05-11T06:27:03.325Z,974.93
2023-05-11T06:28:03.092Z,975.09
2023-05-11T06:29:03.156Z,975.00
2023-05-11T06:30:03.918Z,975.12
2023-05-11T06:31:03.960Z,974.97
2023-05-11T06:32:03.649Z,974.92
2023-05-11T06:35:03.875Z,975.09
2023-05-11T06:36:05.519Z,975.09
2023-05-11T06:38:03.826Z,974.87
2023-05-11T06:39:03.543Z,975.03
2023-05-11T06:41:03.559Z,975.00
2023-05-11T06:42:07.025Z,974.97
2023-05-11T06:44:03.011Z,974.92
2023-05-11T06:45:03.741Z,974.94
2023-05-11T06:46:03.988Z,974.83
2023-05-11T06:48:04.005Z,974.91
2023-05-11T06:50:03.250Z,974.85
2023-05-11T06:51:03.630Z,974.85
2023-05-11T06:53:03.692Z,974.82
2023-05-11T06:54:03.780Z,974.76
2023-05-11T07:03:04.041Z,974.95
2023-05-11T07:05:03.576Z,974.84
2023-05-11T07:06:03.549Z,975.09
2023-05-11T07:07:03.189Z,974.98
2023-05-11T07:08:03.884Z,974.95
2023-05-11T07:09:03.621Z,974.98
2023-05-11T07:10:03.311Z,974.98
2023-05-11T07:11:03.352Z,974.95
2023-05-11T07:12:03.774Z,974.98
2023-05-11T07:13:03.492Z,974.93
2023-05-11T07:14:03.519Z,975.09
2023-05-11T07:17:03.107Z,975.10
2023-05-11T07:18:03.742Z,975.04
2023-05-11T07:19:03.727Z,975.01
2023-05-11T07:20:03.445Z,974.98
2023-05-11T07:22:03.703Z,975.12
2023-05-11T07:23:03.971Z,975.04
2023-05-11T07:26:03.030Z,975.09
2023-05-11T07:28:04.031Z,975.18
2023-05-11T07:29:03.948Z,975.00
2023-05-11T07:30:03.530Z,975.15
2023-05-11T07:31:03.826Z,975.23
2023-05-11T07:32:03.270Z,975.12
2023-05-11T07:33:03.476Z,975.03
2023-05-11T07:34:03.681Z,975.12
2023-05-11T07:35:03.614Z,975.15
2023-05-11T07:36:03.257Z,975.20
2023-05-11T07:37:03.034Z,975.17
2023-05-11T07:38:03.247Z,975.26
2023-05-11T07:39:03.892Z,975.11
2023-05-11T07:41:06.943Z,975.20
2023-05-11T07:42:03.433Z,975.23
2023-05-11T07:43:03.899Z,975.11
2023-05-11T07:44:03.879Z,975.20
2023-05-11T07:45:03.942Z,975.17
2023-05-11T07:46:03.569Z,975.31
2023-05-11T07:48:03.222Z,975.28
2023-05-11T07:49:20.729Z,975.25
2023-05-11T07:50:03.167Z,975.28
2023-05-11T07:51:03.149Z,975.33
2023-05-11T07:52:03.193Z,975.42
2023-05-11T07:53:03.266Z,975.33
2023-05-11T07:54:03.228Z,975.33
2023-05-11T07:55:03.170Z,975.25
2023-05-11T07:56:03.873Z,975.14
2023-05-11T07:58:03.003Z,975.44
2023-05-11T07:59:03.653Z,975.22
2023-05-11T08:00:03.386Z,975.31
2023-05-11T08:01:03.548Z,975.25
2023-05-11T08:04:03.130Z,975.28
2023-05-11T08:06:03.277Z,975.38
2023-05-11T08:07:03.257Z,975.41
2023-05-11T08:11:03.033Z,975.49
2023-05-11T08:13:03.695Z,975.30
2023-05-11T08:15:03.505Z,975.34
2023-05-11T08:16:03.062Z,975.37
2023-05-11T08:17:03.218Z,975.37
2023-05-11T08:19:03.233Z,975.40
2023-05-11T08:22:04.147Z,975.46
2023-05-11T08:23:03.799Z,975.40
2023-05-11T08:24:03.684Z,975.43
2023-05-11T08:25:03.273Z,975.34
2023-05-11T08:26:03.024Z,975.45
2023-05-11T08:28:03.089Z,975.29
2023-05-11T08:30:03.385Z,975.42
2023-05-11T08:31:03.774Z,975.39
2023-05-11T08:33:03.132Z,975.50
2023-05-11T08:35:03.691Z,975.39
2023-05-11T08:37:03.927Z,975.33
2023-05-11T09:17:09.865Z,975.71
2023-05-11T09:18:03.959Z,975.62
2023-05-11T09:22:03.664Z,975.65
2023-05-11T09:25:03.720Z,975.65
2023-05-11T09:28:04.026Z,975.79
2023-05-11T09:29:04.511Z,975.76
2023-05-11T09:30:03.794Z,975.76
2023-05-11T09:31:03.822Z,975.81
2023-05-11T09:33:03.338Z,975.78
2023-05-11T09:34:03.054Z,975.96
2023-05-11T09:35:03.613Z,975.90
2023-05-11T09:36:03.708Z,975.87
2023-05-11T09:37:03.668Z,975.81
2023-05-11T09:38:03.280Z,975.98
2023-05-11T09:39:03.118Z,975.98
2023-05-11T09:40:26.104Z,975.95
2023-05-11T09:41:03.751Z,976.07
2023-05-11T09:42:03.779Z,975.89
2023-05-11T09:43:04.272Z,975.95
2023-05-11T09:44:03.759Z,975.97
2023-05-11T09:45:03.181Z,975.86
2023-05-11T09:46:03.310Z,975.88
2023-05-11T09:47:03.497Z,976.00
2023-05-11T09:49:03.760Z,975.91
2023-05-11T09:51:03.528Z,975.93
2023-05-11T09:52:03.314Z,975.90
2023-05-11T09:53:03.776Z,975.98
2023-05-11T09:54:03.753Z,976.10
2023-05-11T09:55:03.758Z,975.95
2023-05-11T09:56:03.347Z,976.03
2023-05-11T09:57:03.078Z,975.94
2023-05-11T09:58:03.531Z,975.94
2023-05-11T10:00:03.963Z,975.96
2023-05-11T10:01:04.937Z,976.02
2023-05-11T10:02:04.021Z,975.99
2023-05-11T10:07:03.727Z,976.21
2023-05-11T10:10:03.319Z,976.26
2023-05-11T10:12:03.994Z,976.14
2023-05-11T10:14:03.040Z,976.17
2023-05-11T10:15:03.759Z,976.16
2023-05-11T10:17:03.638Z,976.01
2023-05-11T10:19:03.689Z,976.13
2023-05-11T10:20:03.762Z,976.01
2023-05-11T10:21:03.768Z,976.07
2023-05-11T10:22:03.789Z,976.21
2023-05-11T10:24:03.891Z,976.21
2023-05-11T10:26:03.499Z,976.25
2023-05-11T10:28:03.492Z,976.28
2023-05-11T10:29:03.475Z,976.10
2023-05-11T10:30:03.570Z,976.22
2023-05-11T10:31:03.176Z,976.25
2023-05-11T10:34:03.933Z,976.22
2023-05-11T10:35:03.863Z,976.22
2023-05-11T10:37:02.960Z,976.17
2023-05-11T10:38:03.729Z,976.17
2023-05-11T10:40:03.131Z,976.11
2023-05-11T10:41:03.805Z,976.22
2023-05-11T10:43:03.633Z,976.02
2023-05-11T10:44:03.269Z,976.11
2023-05-11T10:45:03.793Z,976.17
2023-05-11T10:46:03.813Z,976.05
2023-05-11T10:51:03.978Z,976.14
2023-05-11T10:52:03.548Z,976.11
2023-05-11T10:53:03.049Z,976.14
2023-05-11T10:57:03.902Z,976.20
2023-05-11T10:58:03.991Z,976.11
2023-05-11T10:59:03.525Z,976.31
2023-05-11T11:00:03.212Z,976.06
2023-05-11T11:01:04.018Z,976.23
2023-05-11T11:03:03.893Z,976.26
2023-05-11T11:04:03.611Z,976.06
2023-05-11T11:05:03.264Z,976.12
2023-05-11T11:06:04.187Z,976.24
2023-05-11T11:07:04.000Z,976.18
2023-05-11T11:09:03.087Z,976.03
2023-05-11T11:11:06.693Z,975.95
2023-05-11T11:12:03.882Z,975.92
2023-05-11T11:13:03.393Z,976.09
2023-05-11T11:14:03.384Z,976.09
2023-05-11T11:15:03.489Z,975.92
2023-05-11T11:16:03.852Z,975.95
2023-05-11T11:17:03.496Z,975.97
2023-05-11T11:19:04.111Z,975.94
2023-05-11T11:22:08.871Z,975.94
2023-05-11T11:24:03.414Z,975.88
2023-05-11T11:26:03.675Z,975.97
2023-05-11T11:28:03.875Z,975.85
2023-05-11T11:29:04.006Z,975.79
2023-05-11T11:31:03.101Z,975.87
2023-05-11T11:34:03.038Z,975.78
2023-05-11T11:35:03.674Z,975.95
2023-05-11T11:37:03.469Z,975.86
2023-05-11T11:38:03.113Z,975.83
2023-05-11T11:39:03.082Z,975.77
2023-05-11T11:40:15.548Z,975.80
2023-05-11T11:42:03.559Z,975.91
2023-05-11T11:43:03.368Z,975.91
2023-05-11T11:44:02.946Z,975.79
2023-05-11T11:45:03.487Z,975.88
2023-05-11T11:46:03.796Z,975.94
2023-05-11T11:47:03.784Z,975.91
2023-05-11T11:49:03.504Z,976.00
2023-05-11T11:50:03.230Z,976.06
2023-05-11T11:52:03.341Z,975.94
2023-05-11T11:53:03.000Z,975.94
2023-05-11T11:55:03.800Z,975.94
2023-05-11T11:56:03.611Z,975.97
2023-05-11T11:59:03.058Z,975.86
2023-05-11T12:01:03.877Z,975.89
2023-05-11T12:03:03.372Z,975.80
2023-05-11T12:05:03.241Z,975.77
2023-05-11T12:07:03.841Z,975.76
2023-05-11T12:08:03.967Z,975.79
2023-05-11T12:09:03.441Z,975.82
2023-05-11T12:10:03.350Z,975.85
2023-05-11T12:12:03.169Z,975.70
2023-05-11T12:13:03.675Z,975.78
2023-05-11T12:15:03.757Z,975.72
2023-05-11T12:17:03.909Z,975.81
2023-05-11T12:19:03.969Z,975.69
2023-05-11T12:21:03.642Z,975.81
2023-05-11T12:24:03.797Z,975.81
2023-05-11T12:26:03.574Z,975.90
2023-05-11T12:27:02.968Z,975.84
2023-05-11T12:28:03.691Z,975.81
2023-05-11T12:29:03.397Z,975.87
2023-05-11T12:30:03.114Z,975.84
2023-05-11T12:31:03.076Z,975.78
2023-05-11T12:32:03.915Z,975.81
2023-05-11T12:36:03.578Z,975.90
2023-05-11T12:38:09.264Z,975.75
2023-05-11T12:40:03.073Z,975.64
2023-05-11T12:41:02.985Z,975.75
2023-05-11T12:42:03.205Z,975.70
2023-05-11T12:43:03.881Z,975.76
2023-05-11T12:45:03.216Z,975.73
2023-05-11T12:48:03.761Z,975.70
2023-05-11T12:49:03.204Z,975.70
2023-05-11T12:50:03.250Z,975.73
2023-05-11T12:52:03.728Z,975.68
2023-05-11T12:55:02.995Z,975.65
2023-05-11T12:57:03.816Z,975.68
2023-05-11T12:58:03.810Z,975.74
2023-05-11T13:01:03.522Z,975.68
2023-05-11T13:04:03.604Z,975.73
2023-05-11T13:05:03.108Z,975.52
2023-05-11T13:08:03.002Z,975.49
2023-05-11T13:10:03.605Z,975.63
2023-05-11T13:12:03.425Z,975.59
2023-05-11T13:15:03.391Z,975.59
2023-05-11T13:16:03.600Z,975.62
2023-05-11T13:17:03.656Z,975.68
2023-05-11T13:20:03.729Z,975.74
2023-05-11T13:22:03.401Z,975.92
2023-05-11T13:23:03.157Z,975.92
2023-05-11T13:24:03.963Z,975.95
2023-05-11T13:25:03.752Z,975.99
2023-05-11T13:27:03.603Z,975.99
2023-05-11T13:30:03.055Z,976.14
2023-05-11T13:31:03.964Z,976.17
2023-05-11T13:32:04.003Z,976.15
2023-05-11T13:33:03.694Z,976.21
2023-05-11T13:34:03.676Z,976.24
2023-05-11T13:35:03.965Z,976.30
2023-05-11T13:36:03.502Z,976.27
2023-05-11T13:37:03.200Z,976.22
2023-05-11T13:38:03.626Z,976.31
2023-05-11T13:40:03.330Z,976.22
2023-05-11T13:41:03.067Z,976.34
2023-05-11T13:42:02.903Z,976.37
2023-05-11T13:43:03.652Z,976.31
2023-05-11T13:49:03.440Z,976.35
2023-05-11T13:50:03.191Z,976.35
2023-05-11T13:51:03.888Z,976.29
2023-05-11T13:52:03.841Z,976.20
2023-05-11T13:53:04.080Z,976.38
2023-05-11T13:54:03.978Z,976.44
2023-05-11T13:56:03.143Z,976.29
2023-05-11T13:57:03.626Z,976.29
2023-05-11T13:59:03.706Z,976.23
2023-05-11T14:01:08.143Z,976.23
2023-05-11T14:02:03.218Z,976.38
2023-05-11T14:03:03.827Z,976.35
2023-05-11T14:04:03.337Z,976.29
2023-05-11T14:05:03.704Z,976.44
2023-05-11T14:06:03.793Z,976.26
2023-05-11T14:07:03.748Z,976.44
2023-05-11T14:08:03.858Z,976.32
2023-05-11T14:09:03.423Z,976.29
2023-05-11T14:11:03.423Z,976.20
2023-05-11T14:13:03.550Z,976.26
2023-05-11T14:15:03.736Z,976.20
2023-05-11T14:17:03.369Z,976.06
2023-05-11T14:18:03.224Z,976.20
2023-05-11T14:19:03.338Z,976.26
2023-05-11T14:20:03.639Z,976.15
2023-05-11T14:21:03.100Z,976.23
2023-05-11T14:22:03.623Z,976.12
2023-05-11T14:23:03.674Z,976.21
2023-05-11T14:24:12.868Z,976.24
2023-05-11T14:25:03.086Z,976.18
2023-05-11T14:26:03.188Z,976.16
2023-05-11T14:27:03.235Z,976.10
2023-05-11T14:28:03.861Z,976.07
2023-05-11T14:30:03.775Z,976.10
2023-05-11T14:31:03.849Z,976.01
2023-05-11T14:32:03.843Z,976.04
2023-05-11T14:33:03.457Z,976.05
2023-05-11T14:34:03.169Z,976.05
2023-05-11T14:36:03.911Z,976.02
2023-05-11T14:38:03.646Z,976.17
2023-05-11T14:40:03.577Z,976.14
2023-05-11T14:41:03.089Z,975.99
2023-05-11T14:42:03.011Z,976.00
2023-05-11T14:44:03.933Z,976.08
2023-05-11T14:46:03.369Z,976.06
2023-05-11T14:47:03.784Z,976.00
2023-05-11T14:48:03.438Z,975.97
2023-05-11T14:49:03.191Z,976.00
2023-05-11T14:50:03.881Z,976.06
2023-05-11T14:51:03.727Z,976.20
2023-05-11T14:53:03.808Z,976.18
2023-05-11T14:54:03.927Z,976.03
2023-05-11T14:56:03.136Z,976.18
2023-05-11T14:57:03.121Z,976.18
2023-05-11T14:58:03.151Z,976.24
2023-05-11T14:59:03.658Z,976.06
2023-05-11T15:00:03.719Z,976.21
2023-05-11T15:03:03.706Z,976.15
2023-05-11T15:05:02.977Z,976.10
2023-05-11T15:06:03.018Z,976.13
2023-05-11T15:07:03.629Z,976.13
2023-05-11T15:09:03.811Z,976.13
2023-05-11T15:10:03.990Z,976.28
2023-05-11T15:13:03.891Z,976.16
2023-05-11T15:14:03.695Z,976.13
2023-05-11T15:15:03.520Z,976.19
2023-05-11T15:16:03.197Z,976.22
2023-05-11T15:17:03.877Z,976.19
2023-05-11T15:19:03.081Z,976.25
2023-05-11T15:20:03.728Z,976.11
2023-05-11T15:21:03.965Z,976.16
2023-05-11T15:22:03.872Z,976.08
2023-05-11T15:23:03.441Z,976.05
2023-05-11T15:24:03.099Z,976.22
2023-05-11T15:25:03.763Z,976.14
2023-05-11T15:26:03.350Z,976.11
2023-05-11T15:27:03.167Z,976.25
2023-05-11T15:28:03.263Z,976.19
2023-05-11T15:29:03.818Z,976.17
2023-05-11T15:31:03.627Z,976.11
2023-05-11T15:32:04.050Z,976.11
2023-05-11T15:33:02.988Z,976.09
2023-05-11T15:34:03.281Z,976.17
2023-05-11T15:35:03.002Z,976.17
2023-05-11T15:36:02.917Z,976.12
2023-05-11T15:37:03.699Z,976.20
2023-05-11T15:39:03.662Z,976.21
2023-05-11T15:40:03.413Z,976.21
2023-05-11T15:42:03.059Z,976.29
2023-05-11T15:43:03.709Z,976.35
2023-05-11T15:44:03.683Z,976.15
2023-05-11T15:45:03.365Z,976.30
2023-05-11T15:46:04.179Z,976.21
2023-05-11T15:47:03.656Z,976.35
2023-05-11T15:48:03.413Z,976.24
2023-05-11T15:49:03.917Z,976.30
2023-05-11T15:51:03.253Z,976.33
2023-05-11T15:52:03.815Z,976.36
2023-05-11T15:53:03.585Z,976.44
2023-05-11T15:54:03.156Z,976.36
2023-05-11T15:55:03.096Z,976.33
2023-05-11T15:56:03.285Z,976.36
2023-05-11T15:58:03.243Z,976.39
2023-05-11T15:59:03.915Z,976.41
2023-05-11T16:01:03.120Z,976.36
2023-05-11T16:02:03.660Z,976.30
2023-05-11T16:03:03.592Z,976.30
2023-05-11T16:04:03.085Z,976.44
2023-05-11T16:05:03.695Z,976.44
2023-05-11T16:07:03.798Z,976.38
2023-05-11T16:08:03.498Z,976.35
2023-05-11T16:10:03.744Z,976.21
2023-05-11T16:11:03.296Z,976.38
2023-05-11T16:12:03.276Z,976.32
2023-05-11T16:13:03.224Z,976.26
2023-05-11T16:14:02.991Z,976.32
2023-05-11T16:15:03.576Z,976.20
2023-05-11T16:16:03.360Z,976.32
2023-05-11T16:17:04.052Z,976.35
2023-05-11T16:18:05.732Z,976.23
2023-05-11T16:20:03.718Z,976.23
2023-05-11T16:21:03.271Z,976.23
2023-05-11T16:23:03.361Z,976.49
2023-05-11T16:24:03.517Z,976.23
2023-05-11T16:25:03.073Z,976.29
2023-05-11T16:26:03.856Z,976.38
2023-05-11T16:28:03.055Z,976.32
2023-05-11T16:29:03.793Z,976.23
2023-05-11T16:30:22.858Z,976.32
2023-05-11T16:31:03.273Z,976.32
2023-05-11T16:32:03.093Z,976.40
2023-05-11T16:33:03.927Z,976.29
2023-05-11T16:35:03.176Z,976.32
2023-05-11T16:36:03.786Z,976.32
2023-05-11T16:37:03.938Z,976.29
2023-05-11T16:39:03.659Z,976.29
2023-05-11T16:40:03.406Z,976.37
2023-05-11T16:41:02.941Z,976.34
2023-05-11T16:42:03.618Z,976.37
2023-05-11T16:43:03.677Z,976.46
2023-05-11T16:44:03.109Z,976.34
2023-05-11T16:45:03.680Z,976.37
2023-05-11T16:46:03.547Z,976.43
2023-05-11T16:47:03.328Z,976.32
2023-05-11T16:48:03.813Z,976.43
2023-05-11T16:49:03.482Z,976.35
2023-05-11T16:51:03.099Z,976.40
2023-05-11T16:52:03.767Z,976.29
2023-05-11T16:53:03.301Z,976.43
2023-05-11T16:54:03.384Z,976.40
2023-05-11T16:55:03.336Z,976.46
2023-05-11T16:56:03.253Z,976.40
2023-05-11T16:57:03.774Z,976.49
2023-05-11T16:58:03.493Z,976.38
2023-05-11T16:59:03.243Z,976.46
2023-05-11T17:01:03.507Z,976.43
2023-05-11T17:02:03.896Z,976.58
2023-05-11T17:03:03.454Z,976.32
2023-05-11T17:05:03.619Z,976.41
2023-05-11T17:07:03.445Z,976.55
2023-05-11T17:08:03.168Z,976.58
2023-05-11T17:10:03.786Z,976.56
2023-05-11T17:12:03.377Z,976.59
2023-05-11T17:13:03.516Z,976.62
2023-05-11T17:14:03.704Z,976.70
2023-05-11T17:15:03.337Z,976.62
2023-05-11T17:16:03.072Z,976.70
2023-05-11T17:17:03.708Z,976.65
2023-05-11T17:18:03.498Z,976.50
2023-05-11T17:19:03.865Z,976.65
2023-05-11T17:20:03.527Z,976.62
2023-05-11T17:21:03.133Z,976.62
2023-05-11T17:22:04.067Z,976.62
2023-05-11T17:24:03.697Z,976.62
2023-05-11T17:25:03.157Z,976.73
2023-05-11T17:26:03.015Z,976.70
2023-05-11T17:27:03.960Z,976.75
2023-05-11T17:29:03.144Z,976.81
2023-05-11T17:30:03.742Z,976.78
2023-05-11T17:31:03.662Z,976.62
2023-05-11T17:32:04.381Z,976.68
2023-05-11T17:34:04.177Z,976.75
2023-05-11T17:36:03.747Z,976.73
2023-05-11T17:38:03.261Z,976.71
2023-05-11T17:39:03.282Z,976.87
2023-05-11T17:40:03.545Z,976.68
2023-05-11T17:41:03.501Z,976.75
2023-05-11T17:43:03.772Z,976.78
2023-05-11T17:44:03.497Z,976.84
2023-05-11T17:45:03.160Z,976.81
2023-05-11T17:46:03.748Z,976.75
2023-05-11T17:47:03.522Z,976.73
2023-05-11T17:48:03.326Z,976.75
2023-05-11T17:49:03.370Z,976.84
2023-05-11T17:50:03.312Z,976.81
2023-05-11T17:51:03.368Z,976.87
2023-05-11T17:52:03.442Z,976.93
2023-05-11T17:53:03.942Z,976.75
2023-05-11T17:55:03.054Z,976.78
2023-05-11T17:56:03.237Z,976.93
2023-05-11T17:57:03.796Z,976.93
2023-05-11T17:59:03.041Z,976.79
2023-05-11T18:00:03.851Z,976.76
2023-05-11T18:02:03.333Z,976.74
2023-05-11T18:03:03.434Z,976.79
2023-05-11T18:04:03.747Z,976.87
2023-05-11T18:05:03.185Z,976.93
2023-05-11T18:06:03.767Z,976.79